sensor_id;sensor_type;location;lat;lon;timestamp;pressure;altitude;pressure_sealevel;temperature;humidity
40954;BME280;26686;50.130;8.710;2023-06-10T00:01:24;99871.56;;;23.10;46.48
40954;BME280;26686;50.130;8.710;2023-06-10T00:06:27;99875.72;;;23.00;47.04
40954;BME280;26686;50.130;8.710;2023-06-10T00:11:33;99864.69;;;22.94;46.94
40954;BME280;26686;50.130;8.710;2023-06-10T00:16:34;99876.41;;;22.82;47.23
40954;BME280;26686;50.130;8.710;2023-06-10T00:21:37;99870.16;;;22.81;47.30
40954;BME280;26686;50.130;8.710;2023-06-10T00:26:41;99868.50;;;22.80;46.79
40954;BME280;26686;50.130;8.710;2023-06-10T00:31:44;99870.59;;;22.78;47.34
40954;BME280;26686;50.130;8.710;2023-06-10T00:36:46;99867.69;;;22.73;47.15
40954;BME280;26686;50.130;8.710;2023-06-10T00:41:48;99864.78;;;22.68;46.81
40954;BME280;26686;50.130;8.710;2023-06-10T00:46:49;99863.94;;;22.67;46.79
40954;BME280;26686;50.130;8.710;2023-06-10T00:51:53;99862.50;;;22.65;47.14
40954;BME280;26686;50.130;8.710;2023-06-10T00:56:54;99856.88;;;22.59;47.00
40954;BME280;26686;50.130;8.710;2023-06-10T01:01:57;99867.72;;;22.53;47.26
40954;BME280;26686;50.130;8.710;2023-06-10T01:07:17;99872.72;;;22.56;47.26
40954;BME280;26686;50.130;8.710;2023-06-10T01:12:37;99867.31;;;22.49;46.96
40954;BME280;26686;50.130;8.710;2023-06-10T01:17:57;99870.25;;;22.48;47.13
40954;BME280;26686;50.130;8.710;2023-06-10T01:23:01;99867.31;;;22.42;47.10
40954;BME280;26686;50.130;8.710;2023-06-10T01:28:09;99876.72;;;22.40;47.11
40954;BME280;26686;50.130;8.710;2023-06-10T01:33:12;99879.22;;;22.35;47.02
40954;BME280;26686;50.130;8.710;2023-06-10T01:38:15;99875.44;;;22.29;47.05
40954;BME280;26686;50.130;8.710;2023-06-10T01:43:20;99881.47;;;22.24;47.12
40954;BME280;26686;50.130;8.710;2023-06-10T01:48:22;99882.75;;;22.22;47.19
40954;BME280;26686;50.130;8.710;2023-06-10T01:53:23;99873.16;;;22.19;47.20
40954;BME280;26686;50.130;8.710;2023-06-10T01:58:25;99873.56;;;22.16;47.30
40954;BME280;26686;50.130;8.710;2023-06-10T02:03:26;99873.16;;;22.13;47.38
40954;BME280;26686;50.130;8.710;2023-06-10T02:08:28;99881.69;;;22.10;47.51
40954;BME280;26686;50.130;8.710;2023-06-10T02:13:30;99879.00;;;22.03;47.55
40954;BME280;26686;50.130;8.710;2023-06-10T02:18:32;99878.38;;;22.01;47.38
40954;BME280;26686;50.130;8.710;2023-06-10T02:23:34;99874.81;;;21.94;47.38
40954;BME280;26686;50.130;8.710;2023-06-10T02:28:36;99875.25;;;21.91;47.61
40954;BME280;26686;50.130;8.710;2023-06-10T02:33:37;99881.91;;;21.88;47.38
40954;BME280;26686;50.130;8.710;2023-06-10T02:38:42;99885.22;;;21.83;47.42
40954;BME280;26686;50.130;8.710;2023-06-10T02:43:43;99886.06;;;21.77;47.19
40954;BME280;26686;50.130;8.710;2023-06-10T02:48:45;99891.44;;;21.70;47.68
40954;BME280;26686;50.130;8.710;2023-06-10T02:53:47;99883.13;;;21.65;47.88
40954;BME280;26686;50.130;8.710;2023-06-10T02:58:49;99897.47;;;21.66;47.94
40954;BME280;26686;50.130;8.710;2023-06-10T03:03:53;99889.75;;;21.56;48.24
40954;BME280;26686;50.130;8.710;2023-06-10T03:08:54;99895.19;;;21.56;48.73
40954;BME280;26686;50.130;8.710;2023-06-10T03:13:57;99888.88;;;21.49;48.90
40954;BME280;26686;50.130;8.710;2023-06-10T03:18:58;99897.19;;;21.47;48.85
40954;BME280;26686;50.130;8.710;2023-06-10T03:24:00;99901.34;;;21.43;49.03
40954;BME280;26686;50.130;8.710;2023-06-10T03:29:02;99904.66;;;21.39;49.06
40954;BME280;26686;50.130;8.710;2023-06-10T03:34:04;99901.75;;;21.33;48.52
40954;BME280;26686;50.130;8.710;2023-06-10T03:39:05;99913.41;;;21.34;48.79
40954;BME280;26686;50.130;8.710;2023-06-10T03:44:07;99906.31;;;21.33;48.44
40954;BME280;26686;50.130;8.710;2023-06-10T03:49:08;99919.63;;;21.28;48.27
40954;BME280;26686;50.130;8.710;2023-06-10T03:54:10;99915.66;;;21.24;48.13
40954;BME280;26686;50.130;8.710;2023-06-10T03:59:12;99919.16;;;21.17;48.16
40954;BME280;26686;50.130;8.710;2023-06-10T04:04:14;99920.44;;;21.22;48.21
40954;BME280;26686;50.130;8.710;2023-06-10T04:09:17;99925.00;;;21.21;47.87
40954;BME280;26686;50.130;8.710;2023-06-10T04:14:19;99925.25;;;21.26;47.82
40954;BME280;26686;50.130;8.710;2023-06-10T04:19:20;99925.03;;;21.28;47.75
40954;BME280;26686;50.130;8.710;2023-06-10T04:24:22;99932.50;;;21.26;48.14
40954;BME280;26686;50.130;8.710;2023-06-10T04:29:24;99936.47;;;21.23;47.77
40954;BME280;26686;50.130;8.710;2023-06-10T04:34:25;99924.59;;;21.24;47.93
40954;BME280;26686;50.130;8.710;2023-06-10T04:39:28;99932.94;;;21.29;47.97
40954;BME280;26686;50.130;8.710;2023-06-10T04:44:30;99933.78;;;21.30;48.08
40954;BME280;26686;50.130;8.710;2023-06-10T04:49:32;99933.16;;;21.28;47.91
40954;BME280;26686;50.130;8.710;2023-06-10T04:54:34;99938.38;;;21.29;47.68
40954;BME280;26686;50.130;8.710;2023-06-10T04:59:36;99925.88;;;21.28;48.17
40954;BME280;26686;50.130;8.710;2023-06-10T05:04:39;99928.16;;;21.31;48.16
40954;BME280;26686;50.130;8.710;2023-06-10T05:09:40;99924.03;;;21.35;48.23
40954;BME280;26686;50.130;8.710;2023-06-10T05:14:42;99930.31;;;21.43;47.94
40954;BME280;26686;50.130;8.710;2023-06-10T05:19:43;99931.78;;;21.45;48.13
40954;BME280;26686;50.130;8.710;2023-06-10T05:24:45;99937.25;;;21.52;48.02
40954;BME280;26686;50.130;8.710;2023-06-10T05:29:48;99947.06;;;21.60;47.84
40954;BME280;26686;50.130;8.710;2023-06-10T05:34:51;99946.44;;;21.64;47.64
40954;BME280;26686;50.130;8.710;2023-06-10T05:39:52;99942.50;;;21.67;47.63
40954;BME280;26686;50.130;8.710;2023-06-10T05:44:54;99943.75;;;21.78;47.53
40954;BME280;26686;50.130;8.710;2023-06-10T05:49:56;99952.34;;;21.81;47.38
40954;BME280;26686;50.130;8.710;2023-06-10T05:54:57;99949.44;;;21.83;47.46
40954;BME280;26686;50.130;8.710;2023-06-10T06:00:00;99951.72;;;21.86;47.22
40954;BME280;26686;50.130;8.710;2023-06-10T06:05:02;99954.03;;;21.96;47.35
40954;BME280;26686;50.130;8.710;2023-06-10T06:10:04;99950.72;;;22.07;47.37
40954;BME280;26686;50.130;8.710;2023-06-10T06:15:07;99948.63;;;22.22;47.08
40954;BME280;26686;50.130;8.710;2023-06-10T06:20:10;99946.78;;;22.30;47.30
40954;BME280;26686;50.130;8.710;2023-06-10T06:25:12;99942.84;;;22.39;47.11
40954;BME280;26686;50.130;8.710;2023-06-10T06:30:14;99940.53;;;22.49;47.42
40954;BME280;26686;50.130;8.710;2023-06-10T06:35:16;99949.91;;;22.67;46.84
40954;BME280;26686;50.130;8.710;2023-06-10T06:40:18;99955.13;;;22.75;46.86
40954;BME280;26686;50.130;8.710;2023-06-10T06:45:20;99958.84;;;22.87;46.74
40954;BME280;26686;50.130;8.710;2023-06-10T06:50:22;99966.16;;;23.00;46.67
40954;BME280;26686;50.130;8.710;2023-06-10T06:55:23;99959.44;;;23.16;46.05
40954;BME280;26686;50.130;8.710;2023-06-10T07:00:25;99968.84;;;23.20;45.83
40954;BME280;26686;50.130;8.710;2023-06-10T07:05:26;99973.78;;;23.37;46.30
40954;BME280;26686;50.130;8.710;2023-06-10T07:10:29;99963.47;;;23.52;45.33
40954;BME280;26686;50.130;8.710;2023-06-10T07:15:30;99962.16;;;23.68;45.50
40954;BME280;26686;50.130;8.710;2023-06-10T07:20:32;99967.09;;;23.85;45.30
40954;BME280;26686;50.130;8.710;2023-06-10T07:25:34;99968.28;;;24.02;44.07
40954;BME280;26686;50.130;8.710;2023-06-10T07:30:37;99976.53;;;24.14;43.77
40954;BME280;26686;50.130;8.710;2023-06-10T07:35:38;99972.66;;;24.35;43.17
40954;BME280;26686;50.130;8.710;2023-06-10T07:40:40;99973.75;;;24.52;42.89
40954;BME280;26686;50.130;8.710;2023-06-10T07:45:43;99960.06;;;24.66;42.88
40954;BME280;26686;50.130;8.710;2023-06-10T07:50:45;99963.50;;;24.80;42.92
40954;BME280;26686;50.130;8.710;2023-06-10T07:55:46;99966.47;;;24.97;42.64
40954;BME280;26686;50.130;8.710;2023-06-10T08:00:48;99974.88;;;25.14;42.60
40954;BME280;26686;50.130;8.710;2023-06-10T08:05:49;99972.59;;;25.29;41.99
40954;BME280;26686;50.130;8.710;2023-06-10T08:10:51;99968.25;;;25.47;42.75
40954;BME280;26686;50.130;8.710;2023-06-10T08:15:53;99974.88;;;25.69;42.43
40954;BME280;26686;50.130;8.710;2023-06-10T08:20:56;99966.06;;;25.86;42.39
40954;BME280;26686;50.130;8.710;2023-06-10T08:25:58;99957.72;;;25.99;41.95
40954;BME280;26686;50.130;8.710;2023-06-10T08:30:59;99957.13;;;26.09;40.47
40954;BME280;26686;50.130;8.710;2023-06-10T08:36:01;99966.91;;;26.17;41.52
40954;BME280;26686;50.130;8.710;2023-06-10T08:41:04;99964.06;;;26.35;41.42
40954;BME280;26686;50.130;8.710;2023-06-10T08:46:08;99972.41;;;26.52;40.78
40954;BME280;26686;50.130;8.710;2023-06-10T08:51:10;99965.31;;;26.75;39.99
40954;BME280;26686;50.130;8.710;2023-06-10T08:56:13;99957.59;;;26.84;40.02
40954;BME280;26686;50.130;8.710;2023-06-10T09:01:15;99953.91;;;26.90;39.50
40954;BME280;26686;50.130;8.710;2023-06-10T09:06:18;99945.94;;;27.12;39.62
40954;BME280;26686;50.130;8.710;2023-06-10T09:11:21;99941.97;;;27.43;39.41
40954;BME280;26686;50.130;8.710;2023-06-10T09:16:26;99944.25;;;27.63;38.77
40954;BME280;26686;50.130;8.710;2023-06-10T09:21:28;99950.13;;;27.84;38.17
40954;BME280;26686;50.130;8.710;2023-06-10T09:26:30;99940.69;;;27.92;38.28
40954;BME280;26686;50.130;8.710;2023-06-10T09:31:35;99953.44;;;28.15;37.97
40954;BME280;26686;50.130;8.710;2023-06-10T09:36:37;99934.88;;;28.17;37.96
40954;BME280;26686;50.130;8.710;2023-06-10T09:41:40;99935.53;;;28.41;37.58
40954;BME280;26686;50.130;8.710;2023-06-10T09:46:42;99935.28;;;28.60;36.79
40954;BME280;26686;50.130;8.710;2023-06-10T09:51:50;99924.44;;;28.65;36.81
40954;BME280;26686;50.130;8.710;2023-06-10T09:56:53;99916.44;;;28.80;36.76
40954;BME280;26686;50.130;8.710;2023-06-10T10:01:55;99929.31;;;29.02;36.52
40954;BME280;26686;50.130;8.710;2023-06-10T10:06:57;99901.19;;;29.29;36.13
40954;BME280;26686;50.130;8.710;2023-06-10T10:12:01;99904.34;;;29.42;35.72
40954;BME280;26686;50.130;8.710;2023-06-10T10:17:05;99905.25;;;29.48;35.71
40954;BME280;26686;50.130;8.710;2023-06-10T10:22:10;99901.47;;;29.54;35.75
40954;BME280;26686;50.130;8.710;2023-06-10T10:27:40;99897.50;;;29.94;33.47
40954;BME280;26686;50.130;8.710;2023-06-10T10:33:00;99898.28;;;30.22;33.39
40954;BME280;26686;50.130;8.710;2023-06-10T10:38:10;99884.66;;;30.38;32.66
40954;BME280;26686;50.130;8.710;2023-06-10T10:43:13;99885.94;;;30.25;32.56
40954;BME280;26686;50.130;8.710;2023-06-10T10:48:15;99898.22;;;30.12;32.00
40954;BME280;26686;50.130;8.710;2023-06-10T10:53:19;99885.81;;;30.04;32.25
40954;BME280;26686;50.130;8.710;2023-06-10T10:58:24;99886.13;;;30.13;32.33
40954;BME280;26686;50.130;8.710;2023-06-10T11:03:29;99869.44;;;29.87;32.34
40954;BME280;26686;50.130;8.710;2023-06-10T11:13:35;99871.47;;;30.35;31.38
40954;BME280;26686;50.130;8.710;2023-06-10T11:18:39;99852.34;;;30.45;30.79
40954;BME280;26686;50.130;8.710;2023-06-10T11:23:41;99859.75;;;30.44;31.07
40954;BME280;26686;50.130;8.710;2023-06-10T11:33:54;99854.72;;;30.74;30.56
40954;BME280;26686;50.130;8.710;2023-06-10T11:39:00;99855.09;;;30.45;30.66
40954;BME280;26686;50.130;8.710;2023-06-10T11:44:04;99845.81;;;30.51;30.80
40954;BME280;26686;50.130;8.710;2023-06-10T11:49:06;99844.88;;;30.88;30.65
40954;BME280;26686;50.130;8.710;2023-06-10T11:54:08;99854.66;;;30.68;30.60
40954;BME280;26686;50.130;8.710;2023-06-10T11:59:10;99854.75;;;30.84;31.00
40954;BME280;26686;50.130;8.710;2023-06-10T12:04:13;99855.31;;;30.86;30.62
40954;BME280;26686;50.130;8.710;2023-06-10T12:09:16;99854.59;;;30.53;31.16
40954;BME280;26686;50.130;8.710;2023-06-10T12:15:02;99850.84;;;30.70;30.30
40954;BME280;26686;50.130;8.710;2023-06-10T12:20:07;99833.28;;;30.71;30.47
40954;BME280;26686;50.130;8.710;2023-06-10T12:25:10;99846.44;;;30.68;29.99
40954;BME280;26686;50.130;8.710;2023-06-10T12:30:19;99823.41;;;30.75;30.28
40954;BME280;26686;50.130;8.710;2023-06-10T12:35:24;99818.50;;;30.92;29.23
40954;BME280;26686;50.130;8.710;2023-06-10T12:40:33;99820.41;;;30.81;29.80
40954;BME280;26686;50.130;8.710;2023-06-10T12:45:37;99820.72;;;30.90;29.38
40954;BME280;26686;50.130;8.710;2023-06-10T12:50:57;99821.34;;;31.08;28.85
40954;BME280;26686;50.130;8.710;2023-06-10T12:55:58;99815.91;;;31.23;29.36
40954;BME280;26686;50.130;8.710;2023-06-10T13:01:01;99817.28;;;31.26;29.32
40954;BME280;26686;50.130;8.710;2023-06-10T13:06:03;99809.31;;;31.34;29.32
40954;BME280;26686;50.130;8.710;2023-06-10T13:11:07;99815.66;;;31.35;29.08
40954;BME280;26686;50.130;8.710;2023-06-10T13:16:09;99807.69;;;31.33;29.20
40954;BME280;26686;50.130;8.710;2023-06-10T13:21:10;99800.25;;;31.29;27.45
40954;BME280;26686;50.130;8.710;2023-06-10T13:26:12;99799.69;;;31.22;27.87
40954;BME280;26686;50.130;8.710;2023-06-10T13:31:14;99795.78;;;31.07;28.87
40954;BME280;26686;50.130;8.710;2023-06-10T13:36:16;99802.09;;;31.02;29.46
40954;BME280;26686;50.130;8.710;2023-06-10T13:41:18;99790.47;;;30.85;29.77
40954;BME280;26686;50.130;8.710;2023-06-10T13:46:19;99800.91;;;30.78;29.37
40954;BME280;26686;50.130;8.710;2023-06-10T13:51:23;99792.38;;;30.79;28.33
40954;BME280;26686;50.130;8.710;2023-06-10T13:56:24;99785.22;;;30.73;29.50
40954;BME280;26686;50.130;8.710;2023-06-10T14:01:27;99778.84;;;30.62;28.79
40954;BME280;26686;50.130;8.710;2023-06-10T14:06:29;99773.28;;;30.52;29.65
40954;BME280;26686;50.130;8.710;2023-06-10T14:11:31;99782.66;;;30.51;29.03
40954;BME280;26686;50.130;8.710;2023-06-10T14:16:35;99767.78;;;30.47;29.55
40954;BME280;26686;50.130;8.710;2023-06-10T14:21:37;99771.66;;;30.51;29.51
40954;BME280;26686;50.130;8.710;2023-06-10T14:26:38;99765.59;;;30.44;28.58
40954;BME280;26686;50.130;8.710;2023-06-10T14:31:40;99758.34;;;30.27;28.94
40954;BME280;26686;50.130;8.710;2023-06-10T14:36:42;99758.06;;;30.24;28.81
40954;BME280;26686;50.130;8.710;2023-06-10T14:41:44;99764.91;;;30.26;28.94
40954;BME280;26686;50.130;8.710;2023-06-10T14:46:45;99753.44;;;30.35;29.82
40954;BME280;26686;50.130;8.710;2023-06-10T14:51:47;99758.47;;;30.48;29.89
40954;BME280;26686;50.130;8.710;2023-06-10T14:56:53;99760.16;;;30.54;28.92
40954;BME280;26686;50.130;8.710;2023-06-10T15:01:54;99753.53;;;30.50;28.96
40954;BME280;26686;50.130;8.710;2023-06-10T15:06:56;99750.69;;;30.40;28.87
40954;BME280;26686;50.130;8.710;2023-06-10T15:11:58;99744.56;;;30.17;28.81
40954;BME280;26686;50.130;8.710;2023-06-10T15:17:00;99748.38;;;30.11;29.28
40954;BME280;26686;50.130;8.710;2023-06-10T15:22:02;99737.38;;;30.06;29.41
40954;BME280;26686;50.130;8.710;2023-06-10T15:27:04;99729.34;;;29.99;28.41
40954;BME280;26686;50.130;8.710;2023-06-10T15:32:06;99728.19;;;29.85;29.31
40954;BME280;26686;50.130;8.710;2023-06-10T15:37:07;99724.81;;;29.77;29.65
40954;BME280;26686;50.130;8.710;2023-06-10T15:42:09;99726.69;;;29.72;30.12
40954;BME280;26686;50.130;8.710;2023-06-10T15:47:12;99725.06;;;29.76;30.66
40954;BME280;26686;50.130;8.710;2023-06-10T15:52:14;99722.38;;;29.81;30.86
40954;BME280;26686;50.130;8.710;2023-06-10T15:57:16;99725.19;;;29.86;30.51
40954;BME280;26686;50.130;8.710;2023-06-10T16:02:17;99723.50;;;29.85;30.46
40954;BME280;26686;50.130;8.710;2023-06-10T16:07:19;99718.59;;;29.87;30.68
40954;BME280;26686;50.130;8.710;2023-06-10T16:12:21;99719.97;;;29.90;31.30
40954;BME280;26686;50.130;8.710;2023-06-10T16:17:22;99714.50;;;29.95;31.47
40954;BME280;26686;50.130;8.710;2023-06-10T16:22:24;99717.50;;;29.93;31.36
40954;BME280;26686;50.130;8.710;2023-06-10T16:27:26;99718.03;;;29.85;31.24
40954;BME280;26686;50.130;8.710;2023-06-10T16:32:27;99725.13;;;29.81;31.47
40954;BME280;26686;50.130;8.710;2023-06-10T16:37:29;99706.94;;;29.70;31.75
40954;BME280;26686;50.130;8.710;2023-06-10T16:42:30;99731.69;;;29.80;31.99
40954;BME280;26686;50.130;8.710;2023-06-10T16:47:34;99726.44;;;29.78;32.02
40954;BME280;26686;50.130;8.710;2023-06-10T16:52:36;99731.00;;;29.62;32.24
40954;BME280;26686;50.130;8.710;2023-06-10T16:57:37;99732.09;;;29.61;32.97
40954;BME280;26686;50.130;8.710;2023-06-10T17:02:39;99736.44;;;29.57;32.83
40954;BME280;26686;50.130;8.710;2023-06-10T17:07:40;99734.19;;;29.49;32.77
40954;BME280;26686;50.130;8.710;2023-06-10T17:12:42;99744.28;;;29.43;33.45
40954;BME280;26686;50.130;8.710;2023-06-10T17:17:43;99743.97;;;29.40;34.06
40954;BME280;26686;50.130;8.710;2023-06-10T17:22:45;99755.47;;;29.37;33.58
40954;BME280;26686;50.130;8.710;2023-06-10T17:27:47;99752.16;;;29.35;34.16
40954;BME280;26686;50.130;8.710;2023-06-10T17:32:49;99771.31;;;29.35;34.74
40954;BME280;26686;50.130;8.710;2023-06-10T17:37:51;99776.16;;;29.22;34.70
40954;BME280;26686;50.130;8.710;2023-06-10T17:42:52;99780.78;;;28.95;35.11
40954;BME280;26686;50.130;8.710;2023-06-10T17:47:54;99794.13;;;28.69;35.74
40954;BME280;26686;50.130;8.710;2023-06-10T17:52:56;99797.25;;;28.55;35.85
40954;BME280;26686;50.130;8.710;2023-06-10T17:57:57;99799.91;;;28.50;36.42
40954;BME280;26686;50.130;8.710;2023-06-10T18:02:59;99811.34;;;28.47;36.49
40954;BME280;26686;50.130;8.710;2023-06-10T18:08:02;99815.06;;;28.36;36.66
40954;BME280;26686;50.130;8.710;2023-06-10T18:13:03;99819.13;;;28.33;36.87
40954;BME280;26686;50.130;8.710;2023-06-10T18:18:05;99823.28;;;28.19;36.58
40954;BME280;26686;50.130;8.710;2023-06-10T18:23:07;99823.44;;;28.12;36.72
40954;BME280;26686;50.130;8.710;2023-06-10T18:28:08;99834.22;;;28.02;37.08
40954;BME280;26686;50.130;8.710;2023-06-10T18:33:10;99839.69;;;28.02;36.90
40954;BME280;26686;50.130;8.710;2023-06-10T18:38:11;99848.53;;;27.92;37.17
40954;BME280;26686;50.130;8.710;2023-06-10T18:43:13;99844.22;;;27.79;37.39
40954;BME280;26686;50.130;8.710;2023-06-10T18:48:14;99846.78;;;27.69;37.53
40954;BME280;26686;50.130;8.710;2023-06-10T18:53:16;99857.63;;;27.64;37.29
40954;BME280;26686;50.130;8.710;2023-06-10T18:58:18;99865.41;;;27.55;37.25
40954;BME280;26686;50.130;8.710;2023-06-10T19:03:19;99868.44;;;27.42;37.60
40954;BME280;26686;50.130;8.710;2023-06-10T19:08:21;99872.72;;;27.38;37.64
40954;BME280;26686;50.130;8.710;2023-06-10T19:13:24;99883.41;;;27.27;37.75
40954;BME280;26686;50.130;8.710;2023-06-10T19:18:26;99883.09;;;27.24;37.98
40954;BME280;26686;50.130;8.710;2023-06-10T19:23:28;99885.97;;;27.05;38.54
40954;BME280;26686;50.130;8.710;2023-06-10T19:28:30;99887.41;;;26.96;38.32
40954;BME280;26686;50.130;8.710;2023-06-10T19:33:31;99897.19;;;26.92;38.82
40954;BME280;26686;50.130;8.710;2023-06-10T19:38:33;99905.25;;;26.87;38.50
40954;BME280;26686;50.130;8.710;2023-06-10T19:43:35;99901.81;;;26.79;38.67
40954;BME280;26686;50.130;8.710;2023-06-10T19:48:37;99905.97;;;26.70;39.01
40954;BME280;26686;50.130;8.710;2023-06-10T19:53:38;99903.59;;;26.62;38.82
40954;BME280;26686;50.130;8.710;2023-06-10T19:58:40;99918.28;;;26.61;39.30
40954;BME280;26686;50.130;8.710;2023-06-10T20:03:42;99917.56;;;26.54;39.08
40954;BME280;26686;50.130;8.710;2023-06-10T20:08:44;99919.34;;;26.48;39.41
40954;BME280;26686;50.130;8.710;2023-06-10T20:13:46;99929.81;;;26.39;39.77
40954;BME280;26686;50.130;8.710;2023-06-10T20:18:51;99934.16;;;26.28;40.20
40954;BME280;26686;50.130;8.710;2023-06-10T20:23:53;99944.50;;;26.26;40.20
40954;BME280;26686;50.130;8.710;2023-06-10T20:28:54;99941.25;;;26.18;40.59
40954;BME280;26686;50.130;8.710;2023-06-10T20:33:58;99949.09;;;26.14;40.85
40954;BME280;26686;50.130;8.710;2023-06-10T20:38:59;99956.19;;;26.03;41.13
40954;BME280;26686;50.130;8.710;2023-06-10T20:44:01;99967.09;;;26.03;41.19
40954;BME280;26686;50.130;8.710;2023-06-10T20:49:02;99950.78;;;25.97;41.20
40954;BME280;26686;50.130;8.710;2023-06-10T20:54:04;99962.50;;;25.97;40.96
40954;BME280;26686;50.130;8.710;2023-06-10T20:59:06;99974.13;;;25.92;41.08
40954;BME280;26686;50.130;8.710;2023-06-10T21:04:07;99977.41;;;25.83;41.27
40954;BME280;26686;50.130;8.710;2023-06-10T21:09:09;99983.78;;;25.76;41.78
40954;BME280;26686;50.130;8.710;2023-06-10T21:14:10;99977.72;;;25.74;41.60
40954;BME280;26686;50.130;8.710;2023-06-10T21:19:12;99980.69;;;25.73;41.64
40954;BME280;26686;50.130;8.710;2023-06-10T21:24:13;99979.72;;;25.67;41.83
40954;BME280;26686;50.130;8.710;2023-06-10T21:29:15;99982.28;;;25.62;42.07
40954;BME280;26686;50.130;8.710;2023-06-10T21:34:16;99987.84;;;25.55;42.52
40954;BME280;26686;50.130;8.710;2023-06-10T21:39:18;99988.31;;;25.52;42.80
40954;BME280;26686;50.130;8.710;2023-06-10T21:44:20;99981.41;;;25.50;42.73
40954;BME280;26686;50.130;8.710;2023-06-10T21:49:21;99986.50;;;25.46;43.04
40954;BME280;26686;50.130;8.710;2023-06-10T21:54:23;99987.16;;;25.41;43.45
40954;BME280;26686;50.130;8.710;2023-06-10T21:59:24;99985.56;;;25.34;43.21
40954;BME280;26686;50.130;8.710;2023-06-10T22:04:26;99988.53;;;25.32;43.44
40954;BME280;26686;50.130;8.710;2023-06-10T22:09:28;99999.25;;;25.27;43.35
40954;BME280;26686;50.130;8.710;2023-06-10T22:14:29;100003.25;;;25.24;43.80
40954;BME280;26686;50.130;8.710;2023-06-10T22:19:31;100009.59;;;25.18;43.71
40954;BME280;26686;50.130;8.710;2023-06-10T22:24:32;100015.13;;;25.12;44.48
40954;BME280;26686;50.130;8.710;2023-06-10T22:29:34;100013.47;;;25.11;44.39
40954;BME280;26686;50.130;8.710;2023-06-10T22:34:36;100012.22;;;24.88;45.04
40954;BME280;26686;50.130;8.710;2023-06-10T22:39:38;100024.16;;;24.87;45.39
40954;BME280;26686;50.130;8.710;2023-06-10T22:44:39;100026.41;;;24.90;45.28
40954;BME280;26686;50.130;8.710;2023-06-10T22:49:41;100026.16;;;24.73;45.90
40954;BME280;26686;50.130;8.710;2023-06-10T22:54:43;100027.66;;;24.69;45.90
40954;BME280;26686;50.130;8.710;2023-06-10T22:59:44;100014.13;;;24.62;45.82
40954;BME280;26686;50.130;8.710;2023-06-10T23:04:48;100028.47;;;24.69;45.73
40954;BME280;26686;50.130;8.710;2023-06-10T23:09:49;100023.91;;;24.63;45.81
40954;BME280;26686;50.130;8.710;2023-06-10T23:14:53;100037.16;;;24.60;45.88
40954;BME280;26686;50.130;8.710;2023-06-10T23:19:54;100033.16;;;24.56;46.13
40954;BME280;26686;50.130;8.710;2023-06-10T23:24:58;100036.09;;;24.54;46.20
40954;BME280;26686;50.130;8.710;2023-06-10T23:30:01;100038.88;;;24.47;46.36
40954;BME280;26686;50.130;8.710;2023-06-10T23:35:03;100044.34;;;24.41;46.72
40954;BME280;26686;50.130;8.710;2023-06-10T23:40:05;100042.94;;;24.38;46.76
40954;BME280;26686;50.130;8.710;2023-06-10T23:45:07;100050.53;;;24.29;46.75
40954;BME280;26686;50.130;8.710;2023-06-10T23:50:09;100055.97;;;24.29;46.66
40954;BME280;26686;50.130;8.710;2023-06-10T23:55:11;100051.63;;;24.22;46.77
